KVUJ Airport (Stanly County) Information

FAA: VUJ - ICAO: KVUJ

KVUJ Airport Location

State North Carolina
County Stanly
City Albemarle
KVUJ Airport is 4 miles northeast of Albemarle, NC.
Latitude 35-25-00.0980N
Longitude 080-09-02.8480W
Elevation 609ft

KVUJ Airport METARs

METAR KVUJ 262315Z AUTO 34004KT 10SM CLR 08/M08 A3003 RMK AO2 T00771085
Altimeter 30.03"
Temperature 7.7°C (45.9°F)
Wind 340° at 4KT
Clouds Skies are clear.
Visibility 10.0mi
Time observed: 2021-11-26T23:15:00Z

KVUJ Airport Details

Status Operational
Activation January 1979
Ownership Public
Usage Public
Chart CHARLOTTE
ATC on-site Yes
Beacon schedule sunset-sunrise
Beacon color clear green

KVUJ Airport Contacts

Owner STANLY COUNTY
Owner address 43222 LOWDER AVIATION PARKWAY, NEW LONDON, NC 28127
Owner phone 704-982-9013
Manager JOHN J MEERWARTH
Manager address RD#1 BOX 223, EAGLE BRIDGE, NY 12057
Manager phone 518-686-9608

KVUJ Airport (Stanly County) Radio Frequencies

KVUJ (Airport) Radio Frequencies

UNICOM 123
Common traffic advisory frequency (CTAF) 126.275